createdAt,value
2019-03-24T00:01:27.020Z,52.57
2019-03-24T00:06:29.406Z,53.77
2019-03-24T00:11:30.899Z,50.37
2019-03-24T00:16:33.158Z,44.00
2019-03-24T00:21:34.665Z,44.93
2019-03-24T00:26:36.686Z,45.10
2019-03-24T00:31:38.264Z,44.97
2019-03-24T00:36:39.743Z,40.47
2019-03-24T00:41:41.618Z,43.20
2019-03-24T00:46:44.623Z,43.00
2019-03-24T00:51:46.099Z,38.80
2019-03-24T00:56:47.888Z,42.03
2019-03-24T01:01:49.739Z,42.23
2019-03-24T01:06:51.822Z,37.67
2019-03-24T01:11:53.584Z,47.77
2019-03-24T01:16:55.818Z,44.17
2019-03-24T01:21:57.378Z,42.50
2019-03-24T01:26:58.850Z,32.40
2019-03-24T01:32:00.770Z,34.30
2019-03-24T01:37:02.342Z,37.80
2019-03-24T01:42:04.744Z,39.87
2019-03-24T01:47:06.220Z,30.67
2019-03-24T01:52:08.243Z,32.23
2019-03-24T01:57:10.063Z,27.03
2019-03-24T02:02:11.570Z,24.50
2019-03-24T02:07:13.573Z,33.13
2019-03-24T02:12:15.203Z,31.93
2019-03-24T02:17:17.448Z,24.37
2019-03-24T02:22:18.924Z,26.63
2019-03-24T02:27:21.358Z,32.70
2019-03-24T02:32:22.906Z,27.53
2019-03-24T02:37:25.041Z,28.07
2019-03-24T02:42:26.660Z,26.30
2019-03-24T02:47:28.148Z,33.13
2019-03-24T02:52:29.622Z,30.93
2019-03-24T02:57:32.300Z,31.73
2019-03-24T03:02:33.972Z,32.63
2019-03-24T03:07:35.428Z,28.30
2019-03-24T03:12:37.121Z,21.97
2019-03-24T03:17:38.575Z,28.23
2019-03-24T03:22:40.164Z,22.50
2019-03-24T03:27:41.718Z,69.87
2019-03-24T03:32:43.231Z,346.80
2019-03-24T03:37:44.812Z,357.17
2019-03-24T03:42:46.579Z,295.90
2019-03-24T03:47:48.093Z,190.33
2019-03-24T03:52:49.872Z,111.43
2019-03-24T03:57:51.722Z,161.60
2019-03-24T04:02:53.337Z,226.83
2019-03-24T04:07:55.149Z,90.67
2019-03-24T04:12:56.619Z,43.13
2019-03-24T04:17:58.273Z,32.63
2019-03-24T04:22:59.753Z,37.90
2019-03-24T04:28:01.232Z,26.27
2019-03-24T04:33:02.818Z,25.87
2019-03-24T04:38:04.380Z,28.33
2019-03-24T04:43:06.343Z,24.63
2019-03-24T04:48:07.937Z,24.10
2019-03-24T04:53:09.776Z,18.17
2019-03-24T04:58:11.552Z,23.27
2019-03-24T05:03:13.438Z,21.27
2019-03-24T05:08:16.638Z,20.87
2019-03-24T05:13:18.110Z,25.77
2019-03-24T05:18:19.659Z,26.43
2019-03-24T05:23:21.461Z,25.13
2019-03-24T05:28:22.944Z,28.00
2019-03-24T05:33:24.899Z,19.50
2019-03-24T05:38:26.396Z,18.97
2019-03-24T05:43:27.935Z,21.03
2019-03-24T05:48:29.715Z,18.07
2019-03-24T05:53:31.179Z,20.33
2019-03-24T05:58:32.663Z,18.00
2019-03-24T06:03:34.194Z,21.43
2019-03-24T06:08:35.899Z,23.40
2019-03-24T06:13:37.564Z,23.03
2019-03-24T06:18:39.035Z,25.97
2019-03-24T06:23:40.986Z,16.50
2019-03-24T06:28:42.872Z,22.27
2019-03-24T06:33:44.368Z,19.47
2019-03-24T06:38:45.846Z,15.47
2019-03-24T06:43:47.395Z,19.67
2019-03-24T06:48:49.233Z,14.87
2019-03-24T06:53:50.701Z,26.67
2019-03-24T06:58:52.582Z,29.57
2019-03-24T07:03:54.351Z,23.63
2019-03-24T07:08:55.845Z,14.73
2019-03-24T07:13:57.319Z,19.93
2019-03-24T07:18:59.261Z,13.27
2019-03-24T07:24:00.745Z,15.57
2019-03-24T07:29:02.207Z,16.53
2019-03-24T07:34:03.685Z,14.67
2019-03-24T07:39:06.571Z,14.30
2019-03-24T07:44:08.117Z,16.77
2019-03-24T07:49:09.888Z,19.70
2019-03-24T07:54:11.683Z,16.70
2019-03-24T07:59:13.487Z,20.47
2019-03-24T08:04:15.195Z,13.97
2019-03-24T08:09:16.742Z,16.73
2019-03-24T08:14:18.464Z,13.47
2019-03-24T08:19:19.949Z,16.17
2019-03-24T08:24:21.357Z,18.73
2019-03-24T08:29:22.900Z,23.23
2019-03-24T08:34:24.875Z,10.70
2019-03-24T08:39:26.855Z,13.63
2019-03-24T08:44:28.794Z,24.50
2019-03-24T08:49:30.670Z,19.70
2019-03-24T08:54:32.152Z,19.73
2019-03-24T08:59:33.660Z,20.00
2019-03-24T09:04:35.222Z,17.37
2019-03-24T09:09:36.777Z,20.80
2019-03-24T09:14:38.602Z,20.17
2019-03-24T09:19:40.087Z,19.03
2019-03-24T09:24:41.591Z,15.30
2019-03-24T09:29:43.249Z,19.03
2019-03-24T09:34:44.738Z,15.70
2019-03-24T09:39:46.325Z,23.27
2019-03-24T09:44:47.861Z,13.90
2019-03-24T09:49:49.418Z,13.97
2019-03-24T09:54:50.900Z,14.87
2019-03-24T09:59:52.404Z,11.67
2019-03-24T10:04:54.967Z,9.60
2019-03-24T10:09:57.108Z,12.97
2019-03-24T10:14:58.566Z,15.63
2019-03-24T10:20:00.022Z,10.73
2019-03-24T10:25:01.673Z,18.00
2019-03-24T10:30:06.489Z,11.37
2019-03-24T10:35:09.070Z,11.17
2019-03-24T10:40:12.049Z,11.50
2019-03-24T10:45:14.478Z,8.17
2019-03-24T10:50:15.958Z,18.83
2019-03-24T10:55:17.657Z,10.17
2019-03-24T11:00:39.322Z,12.10
2019-03-24T11:05:41.221Z,11.80
2019-03-24T11:10:43.578Z,12.80
2019-03-24T11:15:45.456Z,13.23
2019-03-24T11:20:46.921Z,5.63
2019-03-24T11:25:48.491Z,15.10
2019-03-24T11:30:50.144Z,16.90
2019-03-24T11:35:51.930Z,7.13
2019-03-24T11:40:54.116Z,18.23
2019-03-24T11:45:56.109Z,14.87
2019-03-24T11:50:57.589Z,7.50
2019-03-24T11:55:59.591Z,13.73
2019-03-24T12:01:01.126Z,11.97
2019-03-24T12:06:13.659Z,12.53
2019-03-24T12:11:06.703Z,9.83
2019-03-24T12:16:08.507Z,13.00
2019-03-24T12:21:10.568Z,10.00
2019-03-24T12:26:12.490Z,11.67
2019-03-24T12:31:14.501Z,7.40
2019-03-24T12:36:16.076Z,8.33
2019-03-24T12:41:17.764Z,9.30
2019-03-24T12:46:19.358Z,5.53
2019-03-24T12:51:21.159Z,7.83
2019-03-24T12:56:23.083Z,8.47
2019-03-24T13:01:24.661Z,8.70
2019-03-24T13:06:26.767Z,7.63
2019-03-24T13:11:28.377Z,6.07
2019-03-24T13:16:30.019Z,8.00
2019-03-24T13:21:31.805Z,6.00
2019-03-24T13:26:34.630Z,8.30
2019-03-24T13:31:38.850Z,5.90
2019-03-24T13:36:41.245Z,4.90
2019-03-24T13:41:43.040Z,7.60
2019-03-24T13:46:44.498Z,6.17
2019-03-24T13:51:45.985Z,9.90
2019-03-24T13:56:47.938Z,8.13
2019-03-24T14:01:49.420Z,9.90
2019-03-24T14:06:51.011Z,6.67
2019-03-24T14:11:52.639Z,8.87
2019-03-24T14:16:54.315Z,9.10
2019-03-24T14:21:55.809Z,12.53
2019-03-24T14:26:57.283Z,6.93
2019-03-24T14:31:58.856Z,8.67
2019-03-24T14:37:00.458Z,35.03
2019-03-24T14:42:02.975Z,7.93
2019-03-24T14:47:04.789Z,10.37
2019-03-24T14:52:06.475Z,6.43
2019-03-24T14:57:08.045Z,9.80
2019-03-24T15:02:09.582Z,12.57
2019-03-24T15:07:11.539Z,3.67
2019-03-24T15:12:13.456Z,9.50
2019-03-24T15:17:15.604Z,6.53
2019-03-24T15:22:17.472Z,8.17
2019-03-24T15:27:19.055Z,14.63
2019-03-24T15:32:20.543Z,10.93
2019-03-24T15:37:22.007Z,17.40
2019-03-24T15:42:23.786Z,7.60
2019-03-24T15:47:25.634Z,8.67
2019-03-24T15:52:27.125Z,7.80
2019-03-24T15:57:29.069Z,5.20
2019-03-24T16:02:30.531Z,10.40
2019-03-24T16:07:32.366Z,6.30
2019-03-24T16:12:34.219Z,8.93
2019-03-24T16:17:35.709Z,17.97
2019-03-24T16:22:37.260Z,14.67
2019-03-24T16:27:38.954Z,14.10
2019-03-24T16:32:40.439Z,21.33
2019-03-24T16:37:42.361Z,25.97
2019-03-24T16:42:44.193Z,18.30
2019-03-24T16:47:46.082Z,14.10
2019-03-24T16:52:47.713Z,15.77
2019-03-24T16:57:49.943Z,13.67
2019-03-24T17:02:51.917Z,13.40
2019-03-24T17:07:53.395Z,18.47
2019-03-24T17:12:55.310Z,9.43
2019-03-24T17:17:56.974Z,10.47
2019-03-24T17:22:58.463Z,13.97
2019-03-24T17:28:00.010Z,31.60
2019-03-24T17:33:01.859Z,23.33
2019-03-24T17:38:03.605Z,29.77
2019-03-24T17:43:05.606Z,33.10
2019-03-24T17:48:07.187Z,29.07
2019-03-24T17:53:08.665Z,14.37
2019-03-24T17:58:10.506Z,16.97
2019-03-24T18:03:12.151Z,16.63
2019-03-24T18:08:13.954Z,15.27
2019-03-24T18:13:15.645Z,8.30
2019-03-24T18:18:17.215Z,12.60
2019-03-24T18:23:18.807Z,9.57
2019-03-24T18:28:20.584Z,13.23
2019-03-24T18:33:22.479Z,15.13
2019-03-24T18:38:24.281Z,18.70
2019-03-24T18:43:26.192Z,19.00
2019-03-24T18:48:27.683Z,20.07
2019-03-24T18:53:29.257Z,20.87
2019-03-24T18:58:32.028Z,19.10
2019-03-24T19:03:33.776Z,25.57
2019-03-24T19:08:35.258Z,34.63
2019-03-24T19:13:36.836Z,56.97
2019-03-24T19:18:38.390Z,58.70
2019-03-24T19:23:40.342Z,48.93
2019-03-24T19:28:42.014Z,39.37
2019-03-24T19:33:43.630Z,35.97
2019-03-24T19:38:45.498Z,35.07
2019-03-24T19:43:47.169Z,58.20
2019-03-24T19:48:48.810Z,68.87
2019-03-24T19:53:50.320Z,47.27
2019-03-24T19:58:52.168Z,46.40
2019-03-24T20:03:53.915Z,37.93
2019-03-24T20:08:55.430Z,34.43
2019-03-24T20:13:57.152Z,36.83
2019-03-24T20:18:58.687Z,38.73
2019-03-24T20:24:00.499Z,78.40
2019-03-24T20:29:02.008Z,93.73
2019-03-24T20:34:03.485Z,110.80
2019-03-24T20:39:08.179Z,127.80
2019-03-24T20:44:11.427Z,117.97
2019-03-24T20:49:13.471Z,110.30
2019-03-24T20:54:15.027Z,96.50
2019-03-24T20:59:16.947Z,95.47
2019-03-24T21:04:20.282Z,93.47
2019-03-24T21:09:22.333Z,76.20
2019-03-24T21:14:23.898Z,81.43
2019-03-24T21:19:25.496Z,76.23
2019-03-24T21:24:26.976Z,89.43
2019-03-24T21:29:28.565Z,85.57
2019-03-24T21:34:30.445Z,73.10
2019-03-24T21:39:32.247Z,70.50
2019-03-24T21:44:34.062Z,60.13
2019-03-24T21:49:35.593Z,41.87
2019-03-24T21:54:37.242Z,33.13
2019-03-24T21:59:38.720Z,28.77
2019-03-24T22:04:40.179Z,34.77
2019-03-24T22:09:41.672Z,33.57
2019-03-24T22:14:43.255Z,30.67
2019-03-24T22:19:45.078Z,34.73
2019-03-24T22:24:46.575Z,30.70
2019-03-24T22:29:48.056Z,24.47
2019-03-24T22:34:50.002Z,23.30
2019-03-24T22:39:51.485Z,21.93
2019-03-24T22:44:53.435Z,25.13
2019-03-24T22:49:55.168Z,23.77
2019-03-24T22:54:56.706Z,24.90
2019-03-24T22:59:59.469Z,23.30
2019-03-24T23:05:01.243Z,18.50
2019-03-24T23:10:04.759Z,16.00
2019-03-24T23:15:07.048Z,17.23
2019-03-24T23:20:09.138Z,17.67
2019-03-24T23:25:10.738Z,19.43
2019-03-24T23:30:13.042Z,25.87
2019-03-24T23:35:14.637Z,28.60
2019-03-24T23:40:16.216Z,22.23
2019-03-24T23:45:17.842Z,22.30
2019-03-24T23:50:19.399Z,17.70
2019-03-24T23:55:20.974Z,21.87
